sensor_id;sensor_type;location;lat;lon;timestamp;temperature;humidity
7566;DHT22;3824;48.010;7.832;2022-07-21T00:02:01;19.80;99.90
7566;DHT22;3824;48.010;7.832;2022-07-21T00:04:28;19.80;99.90
7566;DHT22;3824;48.010;7.832;2022-07-21T00:06:55;19.80;99.90
7566;DHT22;3824;48.010;7.832;2022-07-21T00:09:22;19.90;99.90
7566;DHT22;3824;48.010;7.832;2022-07-21T00:11:49;19.90;99.90
7566;DHT22;3824;48.010;7.832;2022-07-21T00:14:16;19.90;99.90
7566;DHT22;3824;48.010;7.832;2022-07-21T00:16:44;19.90;99.90
7566;DHT22;3824;48.010;7.832;2022-07-21T00:19:11;19.90;99.90
7566;DHT22;3824;48.010;7.832;2022-07-21T00:21:38;19.80;99.90
7566;DHT22;3824;48.010;7.832;2022-07-21T00:24:06;19.80;99.90
7566;DHT22;3824;48.010;7.832;2022-07-21T00:26:33;19.80;99.90
7566;DHT22;3824;48.010;7.832;2022-07-21T00:28:59;19.80;99.90
7566;DHT22;3824;48.010;7.832;2022-07-21T00:31:26;19.80;99.90
7566;DHT22;3824;48.010;7.832;2022-07-21T00:33:55;19.80;99.90
7566;DHT22;3824;48.010;7.832;2022-07-21T00:36:21;19.80;99.90
7566;DHT22;3824;48.010;7.832;2022-07-21T00:38:48;19.70;99.90
7566;DHT22;3824;48.010;7.832;2022-07-21T00:41:15;19.70;99.90
7566;DHT22;3824;48.010;7.832;2022-07-21T00:43:42;19.70;99.90
7566;DHT22;3824;48.010;7.832;2022-07-21T00:46:09;19.70;99.90
7566;DHT22;3824;48.010;7.832;2022-07-21T00:48:36;19.70;99.90
7566;DHT22;3824;48.010;7.832;2022-07-21T00:51:06;19.70;99.90
7566;DHT22;3824;48.010;7.832;2022-07-21T00:53:33;19.60;99.90
7566;DHT22;3824;48.010;7.832;2022-07-21T00:56:02;19.60;99.90
7566;DHT22;3824;48.010;7.832;2022-07-21T00:58:29;19.50;99.90
7566;DHT22;3824;48.010;7.832;2022-07-21T01:00:56;19.50;99.90
7566;DHT22;3824;48.010;7.832;2022-07-21T01:03:23;19.50;99.90
7566;DHT22;3824;48.010;7.832;2022-07-21T01:05:50;19.50;99.90
7566;DHT22;3824;48.010;7.832;2022-07-21T01:08:18;19.50;99.90
7566;DHT22;3824;48.010;7.832;2022-07-21T01:10:45;19.50;99.90
7566;DHT22;3824;48.010;7.832;2022-07-21T01:13:12;19.40;99.90
7566;DHT22;3824;48.010;7.832;2022-07-21T01:15:39;19.40;99.90
7566;DHT22;3824;48.010;7.832;2022-07-21T01:18:06;19.40;99.90
7566;DHT22;3824;48.010;7.832;2022-07-21T01:20:34;19.40;99.90
7566;DHT22;3824;48.010;7.832;2022-07-21T01:23:04;19.40;99.90
7566;DHT22;3824;48.010;7.832;2022-07-21T01:25:31;19.40;99.90
7566;DHT22;3824;48.010;7.832;2022-07-21T01:27:58;19.30;99.90
7566;DHT22;3824;48.010;7.832;2022-07-21T01:30:25;19.40;99.90
7566;DHT22;3824;48.010;7.832;2022-07-21T01:32:52;19.40;99.90
7566;DHT22;3824;48.010;7.832;2022-07-21T01:35:19;19.30;99.90
7566;DHT22;3824;48.010;7.832;2022-07-21T01:37:47;19.30;99.90
7566;DHT22;3824;48.010;7.832;2022-07-21T01:40:17;19.30;99.90
7566;DHT22;3824;48.010;7.832;2022-07-21T01:43:01;19.30;99.90
7566;DHT22;3824;48.010;7.832;2022-07-21T01:45:28;19.30;99.90
7566;DHT22;3824;48.010;7.832;2022-07-21T01:47:56;19.30;99.90
7566;DHT22;3824;48.010;7.832;2022-07-21T01:50:23;19.30;99.90
7566;DHT22;3824;48.010;7.832;2022-07-21T01:52:52;19.30;99.90
7566;DHT22;3824;48.010;7.832;2022-07-21T01:55:21;19.30;99.90
7566;DHT22;3824;48.010;7.832;2022-07-21T01:57:48;19.30;99.90
7566;DHT22;3824;48.010;7.832;2022-07-21T02:00:16;19.30;99.90
7566;DHT22;3824;48.010;7.832;2022-07-21T02:02:43;19.30;99.90
7566;DHT22;3824;48.010;7.832;2022-07-21T02:05:10;19.30;99.90
7566;DHT22;3824;48.010;7.832;2022-07-21T02:07:37;19.30;99.90
7566;DHT22;3824;48.010;7.832;2022-07-21T02:10:04;19.30;99.90
7566;DHT22;3824;48.010;7.832;2022-07-21T02:12:33;19.20;99.90
7566;DHT22;3824;48.010;7.832;2022-07-21T02:14:59;19.20;99.90
7566;DHT22;3824;48.010;7.832;2022-07-21T02:17:26;19.30;99.90
7566;DHT22;3824;48.010;7.832;2022-07-21T02:19:53;19.30;99.90
7566;DHT22;3824;48.010;7.832;2022-07-21T02:22:20;19.30;99.90
7566;DHT22;3824;48.010;7.832;2022-07-21T02:24:47;19.30;99.90
7566;DHT22;3824;48.010;7.832;2022-07-21T02:27:14;19.30;99.90
7566;DHT22;3824;48.010;7.832;2022-07-21T02:29:42;19.30;99.90
7566;DHT22;3824;48.010;7.832;2022-07-21T02:32:09;19.30;99.90
7566;DHT22;3824;48.010;7.832;2022-07-21T02:34:36;19.30;99.90
7566;DHT22;3824;48.010;7.832;2022-07-21T02:37:02;19.40;99.90
7566;DHT22;3824;48.010;7.832;2022-07-21T02:39:29;19.40;99.90
7566;DHT22;3824;48.010;7.832;2022-07-21T02:41:56;19.40;99.90
7566;DHT22;3824;48.010;7.832;2022-07-21T02:44:24;19.40;99.90
7566;DHT22;3824;48.010;7.832;2022-07-21T02:46:53;19.30;99.90
7566;DHT22;3824;48.010;7.832;2022-07-21T02:49:20;19.30;99.90
7566;DHT22;3824;48.010;7.832;2022-07-21T02:51:47;19.20;99.90
7566;DHT22;3824;48.010;7.832;2022-07-21T02:54:14;19.20;99.90
7566;DHT22;3824;48.010;7.832;2022-07-21T02:56:41;19.20;99.90
7566;DHT22;3824;48.010;7.832;2022-07-21T02:59:08;19.20;99.90
7566;DHT22;3824;48.010;7.832;2022-07-21T03:01:34;19.20;99.90
7566;DHT22;3824;48.010;7.832;2022-07-21T03:04:03;19.20;99.90
7566;DHT22;3824;48.010;7.832;2022-07-21T03:06:30;19.20;99.90
7566;DHT22;3824;48.010;7.832;2022-07-21T03:08:57;19.20;99.90
7566;DHT22;3824;48.010;7.832;2022-07-21T03:11:24;19.20;99.90
7566;DHT22;3824;48.010;7.832;2022-07-21T03:13:51;19.20;99.90
7566;DHT22;3824;48.010;7.832;2022-07-21T03:16:18;19.20;99.90
7566;DHT22;3824;48.010;7.832;2022-07-21T03:18:44;19.20;99.90
7566;DHT22;3824;48.010;7.832;2022-07-21T03:21:13;19.20;99.90
7566;DHT22;3824;48.010;7.832;2022-07-21T03:23:40;19.10;99.90
7566;DHT22;3824;48.010;7.832;2022-07-21T03:26:11;19.10;99.90
7566;DHT22;3824;48.010;7.832;2022-07-21T03:28:37;19.10;99.90
7566;DHT22;3824;48.010;7.832;2022-07-21T03:31:05;19.00;99.90
7566;DHT22;3824;48.010;7.832;2022-07-21T03:33:32;19.10;99.90
7566;DHT22;3824;48.010;7.832;2022-07-21T03:35:59;19.00;99.90
7566;DHT22;3824;48.010;7.832;2022-07-21T03:38:27;19.00;99.90
7566;DHT22;3824;48.010;7.832;2022-07-21T03:40:54;19.00;99.90
7566;DHT22;3824;48.010;7.832;2022-07-21T03:43:21;19.00;99.90
7566;DHT22;3824;48.010;7.832;2022-07-21T03:45:48;19.00;99.90
7566;DHT22;3824;48.010;7.832;2022-07-21T03:48:16;19.00;99.90
7566;DHT22;3824;48.010;7.832;2022-07-21T03:50:43;19.00;99.90
7566;DHT22;3824;48.010;7.832;2022-07-21T03:53:10;18.90;99.90
7566;DHT22;3824;48.010;7.832;2022-07-21T03:55:38;18.80;99.90
7566;DHT22;3824;48.010;7.832;2022-07-21T03:58:06;18.90;99.90
7566;DHT22;3824;48.010;7.832;2022-07-21T04:00:35;18.80;99.90
7566;DHT22;3824;48.010;7.832;2022-07-21T04:03:04;18.90;99.90
7566;DHT22;3824;48.010;7.832;2022-07-21T04:05:32;18.90;99.90
7566;DHT22;3824;48.010;7.832;2022-07-21T04:08:00;19.00;99.90
7566;DHT22;3824;48.010;7.832;2022-07-21T04:10:30;19.00;99.90
7566;DHT22;3824;48.010;7.832;2022-07-21T04:13:00;19.10;99.90
7566;DHT22;3824;48.010;7.832;2022-07-21T04:15:28;19.10;99.90
7566;DHT22;3824;48.010;7.832;2022-07-21T04:17:55;19.10;99.90
7566;DHT22;3824;48.010;7.832;2022-07-21T04:20:22;19.10;99.90
7566;DHT22;3824;48.010;7.832;2022-07-21T04:22:50;19.10;99.90
7566;DHT22;3824;48.010;7.832;2022-07-21T04:25:18;19.10;99.90
7566;DHT22;3824;48.010;7.832;2022-07-21T04:27:45;19.10;99.90
7566;DHT22;3824;48.010;7.832;2022-07-21T04:30:15;19.10;99.90
7566;DHT22;3824;48.010;7.832;2022-07-21T04:32:43;19.10;99.90
7566;DHT22;3824;48.010;7.832;2022-07-21T04:35:10;19.10;99.90
7566;DHT22;3824;48.010;7.832;2022-07-21T04:37:36;19.10;99.90
7566;DHT22;3824;48.010;7.832;2022-07-21T04:40:06;19.20;99.90
7566;DHT22;3824;48.010;7.832;2022-07-21T04:42:33;19.20;99.90
7566;DHT22;3824;48.010;7.832;2022-07-21T04:45:00;19.30;99.90
7566;DHT22;3824;48.010;7.832;2022-07-21T04:47:29;19.40;99.90
7566;DHT22;3824;48.010;7.832;2022-07-21T04:49:56;19.50;99.90
7566;DHT22;3824;48.010;7.832;2022-07-21T04:52:23;19.60;99.90
7566;DHT22;3824;48.010;7.832;2022-07-21T04:54:50;19.60;99.90
7566;DHT22;3824;48.010;7.832;2022-07-21T04:57:17;19.60;99.90
7566;DHT22;3824;48.010;7.832;2022-07-21T04:59:43;19.70;99.90
7566;DHT22;3824;48.010;7.832;2022-07-21T05:02:10;19.80;99.90
7566;DHT22;3824;48.010;7.832;2022-07-21T05:04:39;19.80;99.90
7566;DHT22;3824;48.010;7.832;2022-07-21T05:07:05;19.90;99.90
7566;DHT22;3824;48.010;7.832;2022-07-21T05:09:32;19.90;99.90
7566;DHT22;3824;48.010;7.832;2022-07-21T05:11:59;20.00;99.90
7566;DHT22;3824;48.010;7.832;2022-07-21T05:14:26;20.10;99.90
7566;DHT22;3824;48.010;7.832;2022-07-21T05:16:53;20.20;99.90
7566;DHT22;3824;48.010;7.832;2022-07-21T05:19:20;20.20;99.90
7566;DHT22;3824;48.010;7.832;2022-07-21T05:21:48;20.40;99.90
7566;DHT22;3824;48.010;7.832;2022-07-21T05:24:15;20.50;99.90
7566;DHT22;3824;48.010;7.832;2022-07-21T05:26:42;20.60;99.90
7566;DHT22;3824;48.010;7.832;2022-07-21T05:29:09;20.70;99.90
7566;DHT22;3824;48.010;7.832;2022-07-21T05:31:36;20.80;99.90
7566;DHT22;3824;48.010;7.832;2022-07-21T05:34:03;20.90;99.90
7566;DHT22;3824;48.010;7.832;2022-07-21T05:36:30;21.00;99.90
7566;DHT22;3824;48.010;7.832;2022-07-21T05:38:58;21.20;99.90
7566;DHT22;3824;48.010;7.832;2022-07-21T05:41:25;21.30;99.90
7566;DHT22;3824;48.010;7.832;2022-07-21T05:43:52;21.40;99.90
7566;DHT22;3824;48.010;7.832;2022-07-21T05:46:19;21.50;99.90
7566;DHT22;3824;48.010;7.832;2022-07-21T05:48:46;21.60;99.90
7566;DHT22;3824;48.010;7.832;2022-07-21T05:51:13;21.70;99.90
7566;DHT22;3824;48.010;7.832;2022-07-21T05:53:40;21.80;99.90
7566;DHT22;3824;48.010;7.832;2022-07-21T05:56:08;21.90;99.90
7566;DHT22;3824;48.010;7.832;2022-07-21T05:58:35;22.00;99.90
7566;DHT22;3824;48.010;7.832;2022-07-21T06:01:02;22.10;99.90
7566;DHT22;3824;48.010;7.832;2022-07-21T06:03:35;22.20;99.90
7566;DHT22;3824;48.010;7.832;2022-07-21T06:06:03;22.30;99.90
7566;DHT22;3824;48.010;7.832;2022-07-21T06:08:30;22.40;99.90
7566;DHT22;3824;48.010;7.832;2022-07-21T06:10:57;22.50;99.90
7566;DHT22;3824;48.010;7.832;2022-07-21T06:13:25;22.60;99.90
7566;DHT22;3824;48.010;7.832;2022-07-21T06:15:52;22.70;99.90
7566;DHT22;3824;48.010;7.832;2022-07-21T06:18:19;22.80;99.90
7566;DHT22;3824;48.010;7.832;2022-07-21T06:20:46;23.00;99.90
7566;DHT22;3824;48.010;7.832;2022-07-21T06:23:13;23.10;99.90
7566;DHT22;3824;48.010;7.832;2022-07-21T06:25:41;23.10;99.90
7566;DHT22;3824;48.010;7.832;2022-07-21T06:28:08;23.20;99.90
7566;DHT22;3824;48.010;7.832;2022-07-21T06:30:36;23.30;99.90
7566;DHT22;3824;48.010;7.832;2022-07-21T06:33:03;23.30;99.90
7566;DHT22;3824;48.010;7.832;2022-07-21T06:35:30;23.30;99.90
7566;DHT22;3824;48.010;7.832;2022-07-21T06:37:57;23.30;99.90
7566;DHT22;3824;48.010;7.832;2022-07-21T06:40:24;23.30;99.90
7566;DHT22;3824;48.010;7.832;2022-07-21T06:42:51;23.40;99.90
7566;DHT22;3824;48.010;7.832;2022-07-21T06:45:18;23.40;99.90
7566;DHT22;3824;48.010;7.832;2022-07-21T06:47:47;23.50;99.90
7566;DHT22;3824;48.010;7.832;2022-07-21T06:50:14;23.50;99.90
7566;DHT22;3824;48.010;7.832;2022-07-21T06:52:41;23.60;99.90
7566;DHT22;3824;48.010;7.832;2022-07-21T06:55:08;23.60;99.90
7566;DHT22;3824;48.010;7.832;2022-07-21T06:57:36;23.70;99.90
7566;DHT22;3824;48.010;7.832;2022-07-21T07:00:04;23.80;99.90
7566;DHT22;3824;48.010;7.832;2022-07-21T07:02:31;23.90;99.90
7566;DHT22;3824;48.010;7.832;2022-07-21T07:04:59;24.00;99.90
7566;DHT22;3824;48.010;7.832;2022-07-21T07:07:27;24.00;99.90
7566;DHT22;3824;48.010;7.832;2022-07-21T07:09:55;24.20;99.90
7566;DHT22;3824;48.010;7.832;2022-07-21T07:12:21;24.30;99.90
7566;DHT22;3824;48.010;7.832;2022-07-21T07:14:48;24.40;99.90
7566;DHT22;3824;48.010;7.832;2022-07-21T07:17:16;24.50;99.90
7566;DHT22;3824;48.010;7.832;2022-07-21T07:19:44;24.60;99.90
7566;DHT22;3824;48.010;7.832;2022-07-21T07:22:12;24.70;99.90
7566;DHT22;3824;48.010;7.832;2022-07-21T07:24:40;24.90;99.90
7566;DHT22;3824;48.010;7.832;2022-07-21T07:27:07;25.10;99.90
7566;DHT22;3824;48.010;7.832;2022-07-21T07:29:34;25.10;99.90
7566;DHT22;3824;48.010;7.832;2022-07-21T07:32:01;25.10;99.90
7566;DHT22;3824;48.010;7.832;2022-07-21T07:34:28;25.10;99.90
7566;DHT22;3824;48.010;7.832;2022-07-21T07:36:55;25.30;99.90
7566;DHT22;3824;48.010;7.832;2022-07-21T07:39:23;25.10;99.90
7566;DHT22;3824;48.010;7.832;2022-07-21T07:41:50;25.10;99.90
7566;DHT22;3824;48.010;7.832;2022-07-21T07:44:17;25.30;99.90
7566;DHT22;3824;48.010;7.832;2022-07-21T07:46:44;25.50;99.90
7566;DHT22;3824;48.010;7.832;2022-07-21T07:49:11;25.60;99.90
7566;DHT22;3824;48.010;7.832;2022-07-21T07:51:38;25.60;99.90
7566;DHT22;3824;48.010;7.832;2022-07-21T07:54:05;25.50;99.90
7566;DHT22;3824;48.010;7.832;2022-07-21T07:56:33;25.40;99.90
7566;DHT22;3824;48.010;7.832;2022-07-21T07:59:00;25.40;99.90
7566;DHT22;3824;48.010;7.832;2022-07-21T08:01:27;25.30;99.90
7566;DHT22;3824;48.010;7.832;2022-07-21T08:03:54;25.30;99.90
7566;DHT22;3824;48.010;7.832;2022-07-21T08:06:21;25.30;99.90
7566;DHT22;3824;48.010;7.832;2022-07-21T08:08:49;25.20;99.90
7566;DHT22;3824;48.010;7.832;2022-07-21T08:11:15;25.10;99.90
7566;DHT22;3824;48.010;7.832;2022-07-21T08:13:44;25.10;99.90
7566;DHT22;3824;48.010;7.832;2022-07-21T08:16:11;25.20;99.90
7566;DHT22;3824;48.010;7.832;2022-07-21T08:18:41;25.40;99.90
7566;DHT22;3824;48.010;7.832;2022-07-21T08:21:08;25.50;99.90
7566;DHT22;3824;48.010;7.832;2022-07-21T08:23:35;25.60;99.90
7566;DHT22;3824;48.010;7.832;2022-07-21T08:26:02;25.80;99.90
7566;DHT22;3824;48.010;7.832;2022-07-21T08:28:29;25.80;99.90
7566;DHT22;3824;48.010;7.832;2022-07-21T08:30:57;25.80;99.90
7566;DHT22;3824;48.010;7.832;2022-07-21T08:33:24;25.90;99.90
7566;DHT22;3824;48.010;7.832;2022-07-21T08:35:51;26.00;99.90
7566;DHT22;3824;48.010;7.832;2022-07-21T08:38:19;26.20;99.90
7566;DHT22;3824;48.010;7.832;2022-07-21T08:40:46;26.30;99.90
7566;DHT22;3824;48.010;7.832;2022-07-21T08:43:13;26.40;99.90
7566;DHT22;3824;48.010;7.832;2022-07-21T08:45:41;26.50;99.90
7566;DHT22;3824;48.010;7.832;2022-07-21T08:48:10;26.70;99.90
7566;DHT22;3824;48.010;7.832;2022-07-21T08:50:39;26.90;99.90
7566;DHT22;3824;48.010;7.832;2022-07-21T08:53:06;27.30;99.90
7566;DHT22;3824;48.010;7.832;2022-07-21T08:55:34;27.60;99.90
7566;DHT22;3824;48.010;7.832;2022-07-21T08:58:02;27.80;99.90
7566;DHT22;3824;48.010;7.832;2022-07-21T09:00:29;27.90;99.90
7566;DHT22;3824;48.010;7.832;2022-07-21T09:03:12;28.00;99.90
7566;DHT22;3824;48.010;7.832;2022-07-21T09:05:40;27.80;99.90
7566;DHT22;3824;48.010;7.832;2022-07-21T09:08:07;27.50;99.90
7566;DHT22;3824;48.010;7.832;2022-07-21T09:10:34;27.30;99.90
7566;DHT22;3824;48.010;7.832;2022-07-21T09:13:03;27.00;99.90
7566;DHT22;3824;48.010;7.832;2022-07-21T09:15:31;26.80;99.90
7566;DHT22;3824;48.010;7.832;2022-07-21T09:18:08;26.60;99.90
7566;DHT22;3824;48.010;7.832;2022-07-21T09:20:37;26.20;99.90
7566;DHT22;3824;48.010;7.832;2022-07-21T09:23:06;25.90;99.90
7566;DHT22;3824;48.010;7.832;2022-07-21T09:25:36;25.70;99.90
7566;DHT22;3824;48.010;7.832;2022-07-21T09:28:15;25.80;99.90
7566;DHT22;3824;48.010;7.832;2022-07-21T09:30:54;25.90;99.90
7566;DHT22;3824;48.010;7.832;2022-07-21T09:33:24;25.90;99.90
7566;DHT22;3824;48.010;7.832;2022-07-21T09:35:58;25.90;99.90
7566;DHT22;3824;48.010;7.832;2022-07-21T09:38:28;25.80;99.90
7566;DHT22;3824;48.010;7.832;2022-07-21T09:40:55;25.90;99.90
7566;DHT22;3824;48.010;7.832;2022-07-21T09:43:34;26.00;99.90
7566;DHT22;3824;48.010;7.832;2022-07-21T09:46:09;26.20;99.90
7566;DHT22;3824;48.010;7.832;2022-07-21T09:48:38;26.50;99.90
7566;DHT22;3824;48.010;7.832;2022-07-21T09:51:37;26.60;99.90
7566;DHT22;3824;48.010;7.832;2022-07-21T09:54:09;26.80;99.90
7566;DHT22;3824;48.010;7.832;2022-07-21T09:56:38;26.80;99.90
7566;DHT22;3824;48.010;7.832;2022-07-21T09:59:07;26.70;99.90
7566;DHT22;3824;48.010;7.832;2022-07-21T10:01:34;26.70;99.90
7566;DHT22;3824;48.010;7.832;2022-07-21T10:04:03;26.70;99.90
7566;DHT22;3824;48.010;7.832;2022-07-21T10:06:32;26.80;99.90
7566;DHT22;3824;48.010;7.832;2022-07-21T10:09:02;27.00;99.90
7566;DHT22;3824;48.010;7.832;2022-07-21T10:11:30;27.10;99.90
7566;DHT22;3824;48.010;7.832;2022-07-21T10:13:56;27.30;99.90
7566;DHT22;3824;48.010;7.832;2022-07-21T10:16:23;27.60;99.90
7566;DHT22;3824;48.010;7.832;2022-07-21T10:18:59;27.70;99.90
7566;DHT22;3824;48.010;7.832;2022-07-21T10:21:39;27.80;99.90
7566;DHT22;3824;48.010;7.832;2022-07-21T10:24:11;27.80;99.90
7566;DHT22;3824;48.010;7.832;2022-07-21T10:26:39;27.60;99.90
7566;DHT22;3824;48.010;7.832;2022-07-21T10:29:56;27.50;99.90
7566;DHT22;3824;48.010;7.832;2022-07-21T10:32:26;27.40;99.90
7566;DHT22;3824;48.010;7.832;2022-07-21T10:34:54;27.30;99.90
7566;DHT22;3824;48.010;7.832;2022-07-21T10:37:43;27.30;99.90
7566;DHT22;3824;48.010;7.832;2022-07-21T10:43:39;27.40;99.90
7566;DHT22;3824;48.010;7.832;2022-07-21T10:46:35;27.70;99.80
7566;DHT22;3824;48.010;7.832;2022-07-21T10:49:06;28.00;99.30
7566;DHT22;3824;48.010;7.832;2022-07-21T10:51:35;28.40;98.10
7566;DHT22;3824;48.010;7.832;2022-07-21T10:54:19;28.60;98.50
7566;DHT22;3824;48.010;7.832;2022-07-21T10:56:46;28.80;97.30
7566;DHT22;3824;48.010;7.832;2022-07-21T10:59:15;28.80;97.00
7566;DHT22;3824;48.010;7.832;2022-07-21T11:01:42;28.60;96.90
7566;DHT22;3824;48.010;7.832;2022-07-21T11:04:12;28.50;96.40
7566;DHT22;3824;48.010;7.832;2022-07-21T11:06:40;28.30;96.00
7566;DHT22;3824;48.010;7.832;2022-07-21T11:09:11;28.00;96.00
7566;DHT22;3824;48.010;7.832;2022-07-21T11:11:39;27.80;96.50
7566;DHT22;3824;48.010;7.832;2022-07-21T11:14:08;27.70;96.90
7566;DHT22;3824;48.010;7.832;2022-07-21T11:16:58;27.50;97.10
7566;DHT22;3824;48.010;7.832;2022-07-21T11:19:33;27.40;97.60
7566;DHT22;3824;48.010;7.832;2022-07-21T11:22:03;27.30;97.40
7566;DHT22;3824;48.010;7.832;2022-07-21T11:24:31;27.30;97.30
7566;DHT22;3824;48.010;7.832;2022-07-21T11:27:00;27.20;97.40
7566;DHT22;3824;48.010;7.832;2022-07-21T11:29:28;27.30;98.00
7566;DHT22;3824;48.010;7.832;2022-07-21T11:31:55;27.60;97.80
7566;DHT22;3824;48.010;7.832;2022-07-21T11:34:25;27.90;97.30
7566;DHT22;3824;48.010;7.832;2022-07-21T11:37:03;28.20;96.10
7566;DHT22;3824;48.010;7.832;2022-07-21T11:39:30;28.50;94.80
7566;DHT22;3824;48.010;7.832;2022-07-21T11:42:02;28.60;93.70
7566;DHT22;3824;48.010;7.832;2022-07-21T11:44:29;28.60;93.90
7566;DHT22;3824;48.010;7.832;2022-07-21T11:46:58;28.60;94.20
7566;DHT22;3824;48.010;7.832;2022-07-21T11:49:27;28.70;94.00
7566;DHT22;3824;48.010;7.832;2022-07-21T11:51:59;28.80;93.80
7566;DHT22;3824;48.010;7.832;2022-07-21T11:54:30;29.00;93.60
7566;DHT22;3824;48.010;7.832;2022-07-21T11:56:58;29.10;93.70
7566;DHT22;3824;48.010;7.832;2022-07-21T11:59:26;29.20;93.40
7566;DHT22;3824;48.010;7.832;2022-07-21T12:01:59;29.40;93.10
7566;DHT22;3824;48.010;7.832;2022-07-21T12:04:40;29.60;92.20
7566;DHT22;3824;48.010;7.832;2022-07-21T12:07:13;29.80;91.40
7566;DHT22;3824;48.010;7.832;2022-07-21T12:09:42;29.90;91.00
7566;DHT22;3824;48.010;7.832;2022-07-21T12:12:09;29.90;90.70
7566;DHT22;3824;48.010;7.832;2022-07-21T12:14:41;29.90;90.40
7566;DHT22;3824;48.010;7.832;2022-07-21T12:17:09;29.90;90.20
7566;DHT22;3824;48.010;7.832;2022-07-21T12:19:38;29.80;90.00
7566;DHT22;3824;48.010;7.832;2022-07-21T12:22:05;29.60;90.10
7566;DHT22;3824;48.010;7.832;2022-07-21T12:24:51;29.60;90.60
7566;DHT22;3824;48.010;7.832;2022-07-21T12:27:19;29.70;89.90
7566;DHT22;3824;48.010;7.832;2022-07-21T12:29:47;29.70;89.90
7566;DHT22;3824;48.010;7.832;2022-07-21T12:32:20;29.90;88.60
7566;DHT22;3824;48.010;7.832;2022-07-21T12:35:05;30.00;88.60
7566;DHT22;3824;48.010;7.832;2022-07-21T12:37:51;30.10;89.10
7566;DHT22;3824;48.010;7.832;2022-07-21T12:40:18;30.10;88.10
7566;DHT22;3824;48.010;7.832;2022-07-21T12:42:47;30.00;88.60
7566;DHT22;3824;48.010;7.832;2022-07-21T12:45:16;29.90;87.30
7566;DHT22;3824;48.010;7.832;2022-07-21T12:47:44;29.90;87.10
7566;DHT22;3824;48.010;7.832;2022-07-21T12:50:33;30.00;86.10
7566;DHT22;3824;48.010;7.832;2022-07-21T12:53:00;30.00;85.20
7566;DHT22;3824;48.010;7.832;2022-07-21T12:55:28;30.10;85.50
7566;DHT22;3824;48.010;7.832;2022-07-21T12:57:57;30.10;85.40
7566;DHT22;3824;48.010;7.832;2022-07-21T13:00:24;30.10;84.70
7566;DHT22;3824;48.010;7.832;2022-07-21T13:02:53;30.30;84.40
7566;DHT22;3824;48.010;7.832;2022-07-21T13:05:22;30.30;85.50
7566;DHT22;3824;48.010;7.832;2022-07-21T13:07:51;30.40;85.10
7566;DHT22;3824;48.010;7.832;2022-07-21T13:10:19;30.50;84.90
7566;DHT22;3824;48.010;7.832;2022-07-21T13:12:46;30.70;85.00
7566;DHT22;3824;48.010;7.832;2022-07-21T13:15:14;30.90;84.30
7566;DHT22;3824;48.010;7.832;2022-07-21T13:17:41;31.00;84.00
7566;DHT22;3824;48.010;7.832;2022-07-21T13:20:09;31.00;83.20
7566;DHT22;3824;48.010;7.832;2022-07-21T13:22:36;31.00;82.80
7566;DHT22;3824;48.010;7.832;2022-07-21T13:25:06;31.30;81.80
7566;DHT22;3824;48.010;7.832;2022-07-21T13:27:33;31.50;80.50
7566;DHT22;3824;48.010;7.832;2022-07-21T13:30:01;31.60;80.90
7566;DHT22;3824;48.010;7.832;2022-07-21T13:32:28;31.80;80.40
7566;DHT22;3824;48.010;7.832;2022-07-21T13:34:55;31.90;79.70
7566;DHT22;3824;48.010;7.832;2022-07-21T13:37:22;32.10;80.40
7566;DHT22;3824;48.010;7.832;2022-07-21T13:39:49;32.30;79.10
7566;DHT22;3824;48.010;7.832;2022-07-21T13:42:18;32.50;78.30
7566;DHT22;3824;48.010;7.832;2022-07-21T13:44:45;32.60;77.20
7566;DHT22;3824;48.010;7.832;2022-07-21T13:47:12;32.70;77.00
7566;DHT22;3824;48.010;7.832;2022-07-21T13:49:40;32.70;75.70
7566;DHT22;3824;48.010;7.832;2022-07-21T13:52:08;32.60;75.90
7566;DHT22;3824;48.010;7.832;2022-07-21T13:54:35;32.50;75.80
7566;DHT22;3824;48.010;7.832;2022-07-21T13:57:02;32.50;74.70
7566;DHT22;3824;48.010;7.832;2022-07-21T13:59:31;32.40;74.20
7566;DHT22;3824;48.010;7.832;2022-07-21T14:01:58;32.20;74.90
7566;DHT22;3824;48.010;7.832;2022-07-21T14:04:25;32.20;75.00
7566;DHT22;3824;48.010;7.832;2022-07-21T14:06:53;32.30;74.90
7566;DHT22;3824;48.010;7.832;2022-07-21T14:09:20;32.30;74.80
7566;DHT22;3824;48.010;7.832;2022-07-21T14:11:48;32.50;74.50
7566;DHT22;3824;48.010;7.832;2022-07-21T14:14:15;32.60;73.80
7566;DHT22;3824;48.010;7.832;2022-07-21T14:16:49;32.60;73.70
7566;DHT22;3824;48.010;7.832;2022-07-21T14:19:16;32.70;72.40
7566;DHT22;3824;48.010;7.832;2022-07-21T14:21:43;32.70;73.10
7566;DHT22;3824;48.010;7.832;2022-07-21T14:24:10;32.70;72.60
7566;DHT22;3824;48.010;7.832;2022-07-21T14:26:55;32.50;72.10
7566;DHT22;3824;48.010;7.832;2022-07-21T14:29:22;32.40;73.50
7566;DHT22;3824;48.010;7.832;2022-07-21T14:31:50;32.50;73.90
7566;DHT22;3824;48.010;7.832;2022-07-21T14:34:18;32.50;73.70
7566;DHT22;3824;48.010;7.832;2022-07-21T14:36:45;32.60;73.90
7566;DHT22;3824;48.010;7.832;2022-07-21T14:39:14;32.70;73.10
7566;DHT22;3824;48.010;7.832;2022-07-21T14:41:42;32.80;72.80
7566;DHT22;3824;48.010;7.832;2022-07-21T14:44:10;32.80;72.90
7566;DHT22;3824;48.010;7.832;2022-07-21T14:46:37;32.70;71.30
7566;DHT22;3824;48.010;7.832;2022-07-21T14:49:06;32.40;72.60
7566;DHT22;3824;48.010;7.832;2022-07-21T14:51:33;32.30;73.60
7566;DHT22;3824;48.010;7.832;2022-07-21T14:54:01;32.20;74.20
7566;DHT22;3824;48.010;7.832;2022-07-21T14:56:28;32.20;75.00
7566;DHT22;3824;48.010;7.832;2022-07-21T14:58:56;32.10;73.90
7566;DHT22;3824;48.010;7.832;2022-07-21T15:01:24;32.10;73.90
7566;DHT22;3824;48.010;7.832;2022-07-21T15:03:51;32.00;73.50
7566;DHT22;3824;48.010;7.832;2022-07-21T15:06:20;32.00;73.80
7566;DHT22;3824;48.010;7.832;2022-07-21T15:08:47;32.00;73.50
7566;DHT22;3824;48.010;7.832;2022-07-21T15:11:14;31.90;73.60
7566;DHT22;3824;48.010;7.832;2022-07-21T15:13:43;31.80;73.90
7566;DHT22;3824;48.010;7.832;2022-07-21T15:16:10;31.80;73.60
7566;DHT22;3824;48.010;7.832;2022-07-21T15:18:37;31.80;73.50
7566;DHT22;3824;48.010;7.832;2022-07-21T15:21:06;31.80;73.70
7566;DHT22;3824;48.010;7.832;2022-07-21T15:23:35;31.80;73.20
7566;DHT22;3824;48.010;7.832;2022-07-21T15:26:02;31.90;73.60
7566;DHT22;3824;48.010;7.832;2022-07-21T15:28:29;32.00;74.70
7566;DHT22;3824;48.010;7.832;2022-07-21T15:30:56;32.00;73.90
7566;DHT22;3824;48.010;7.832;2022-07-21T15:33:23;32.20;73.50
7566;DHT22;3824;48.010;7.832;2022-07-21T15:35:50;32.30;72.90
7566;DHT22;3824;48.010;7.832;2022-07-21T15:38:19;32.40;71.70
7566;DHT22;3824;48.010;7.832;2022-07-21T15:40:48;32.40;72.00
7566;DHT22;3824;48.010;7.832;2022-07-21T15:43:15;32.40;70.70
7566;DHT22;3824;48.010;7.832;2022-07-21T15:45:43;32.20;71.70
7566;DHT22;3824;48.010;7.832;2022-07-21T15:48:10;32.00;71.90
7566;DHT22;3824;48.010;7.832;2022-07-21T15:50:38;31.70;72.10
7566;DHT22;3824;48.010;7.832;2022-07-21T15:53:06;31.60;72.90
7566;DHT22;3824;48.010;7.832;2022-07-21T15:55:34;31.60;72.40
7566;DHT22;3824;48.010;7.832;2022-07-21T15:58:03;31.60;72.40
7566;DHT22;3824;48.010;7.832;2022-07-21T16:00:30;31.60;72.10
7566;DHT22;3824;48.010;7.832;2022-07-21T16:02:57;31.50;72.60
7566;DHT22;3824;48.010;7.832;2022-07-21T16:05:26;31.50;72.90
7566;DHT22;3824;48.010;7.832;2022-07-21T16:07:54;31.60;72.90
7566;DHT22;3824;48.010;7.832;2022-07-21T16:10:23;31.70;72.50
7566;DHT22;3824;48.010;7.832;2022-07-21T16:12:50;31.70;72.00
7566;DHT22;3824;48.010;7.832;2022-07-21T16:15:19;31.80;71.80